createdAt,value
2023-01-15T00:02:07.541Z,10.60
2023-01-15T00:04:34.541Z,7.50
2023-01-15T00:07:01.413Z,7.37
2023-01-15T00:09:28.298Z,6.97
2023-01-15T00:11:55.269Z,8.37
2023-01-15T00:14:22.182Z,7.27
2023-01-15T00:16:53.045Z,9.43
2023-01-15T00:19:19.862Z,6.70
2023-01-15T00:21:47.149Z,8.53
2023-01-15T00:24:32.645Z,10.03
2023-01-15T00:27:18.022Z,11.27
2023-01-15T00:29:46.750Z,9.57
2023-01-15T00:32:13.557Z,8.13
2023-01-15T00:34:40.481Z,9.03
2023-01-15T00:37:07.387Z,8.93
2023-01-15T00:39:35.714Z,8.20
2023-01-15T00:42:03.224Z,9.53
2023-01-15T00:44:33.784Z,9.00
2023-01-15T00:47:00.825Z,7.73
2023-01-15T00:49:27.602Z,8.20
2023-01-15T00:51:54.585Z,6.83
2023-01-15T00:54:21.642Z,7.87
2023-01-15T00:56:48.435Z,6.80
2023-01-15T00:59:15.490Z,9.20
2023-01-15T01:01:43.320Z,7.27
2023-01-15T01:04:11.054Z,8.70
2023-01-15T01:06:38.295Z,7.57
2023-01-15T01:09:05.055Z,6.93
2023-01-15T01:11:34.790Z,9.83
2023-01-15T01:14:02.659Z,6.53
2023-01-15T01:16:35.969Z,8.70
2023-01-15T01:19:04.951Z,6.87
2023-01-15T01:21:31.830Z,6.67
2023-01-15T01:23:59.847Z,8.57
2023-01-15T01:26:27.302Z,11.30
2023-01-15T01:28:56.017Z,9.70
2023-01-15T01:31:23.328Z,9.63
2023-01-15T01:33:50.757Z,8.67
2023-01-15T01:36:18.279Z,8.70
2023-01-15T01:38:50.210Z,8.77
2023-01-15T01:41:19.736Z,9.17
2023-01-15T01:44:00.271Z,7.60
2023-01-15T01:46:27.974Z,8.30
2023-01-15T01:48:57.913Z,8.77
2023-01-15T01:51:27.721Z,7.93
2023-01-15T01:53:55.780Z,8.23
2023-01-15T01:56:23.459Z,8.37
2023-01-15T01:58:51.889Z,9.23
2023-01-15T02:01:19.605Z,9.73
2023-01-15T02:03:46.692Z,12.33
2023-01-15T02:06:14.409Z,9.20
2023-01-15T02:08:41.452Z,9.87
2023-01-15T02:11:12.693Z,6.80
2023-01-15T02:13:41.386Z,13.53
2023-01-15T02:16:11.379Z,8.13
2023-01-15T02:18:49.689Z,7.37
2023-01-15T02:21:35.450Z,7.43
2023-01-15T02:24:17.712Z,8.90
2023-01-15T02:26:52.337Z,8.77
2023-01-15T02:29:23.756Z,7.37
2023-01-15T02:31:52.592Z,8.03
2023-01-15T02:34:25.615Z,6.27
2023-01-15T02:37:00.852Z,7.20
2023-01-15T02:39:28.828Z,7.57
2023-01-15T02:41:58.724Z,8.27
2023-01-15T02:44:31.096Z,7.53
2023-01-15T02:46:59.941Z,9.43
2023-01-15T02:49:28.801Z,7.67
2023-01-15T02:51:59.614Z,9.23
2023-01-15T02:54:27.680Z,6.87
2023-01-15T02:56:57.769Z,10.37
2023-01-15T02:59:27.482Z,6.40
2023-01-15T03:02:00.755Z,7.40
2023-01-15T03:04:30.953Z,6.97
2023-01-15T03:06:57.790Z,7.70
2023-01-15T03:09:24.783Z,7.50
2023-01-15T03:12:10.446Z,7.97
2023-01-15T03:14:58.120Z,5.43
2023-01-15T03:17:28.530Z,7.63
2023-01-15T03:20:02.334Z,7.83
2023-01-15T03:22:34.434Z,5.17
2023-01-15T03:25:03.958Z,4.03
2023-01-15T03:27:34.765Z,4.80
2023-01-15T03:30:11.990Z,4.77
2023-01-15T03:32:39.101Z,6.80
2023-01-15T03:35:26.387Z,6.00
2023-01-15T03:37:53.635Z,6.23
2023-01-15T03:40:23.967Z,5.53
2023-01-15T03:43:14.526Z,6.50
2023-01-15T03:45:43.295Z,4.93
2023-01-15T03:48:13.588Z,6.53
2023-01-15T03:50:41.810Z,5.70
2023-01-15T03:53:21.041Z,6.17
2023-01-15T03:56:08.853Z,6.07
2023-01-15T03:58:50.265Z,6.97
2023-01-15T04:01:25.898Z,9.37
2023-01-15T04:03:54.353Z,5.93
2023-01-15T04:06:26.660Z,6.53
2023-01-15T04:08:54.196Z,6.60
2023-01-15T04:11:24.742Z,5.63
2023-01-15T04:13:55.345Z,7.93
2023-01-15T04:16:48.323Z,10.53
2023-01-15T04:19:15.354Z,7.20
2023-01-15T04:21:50.356Z,7.87
2023-01-15T04:24:17.531Z,6.43
2023-01-15T04:26:44.382Z,7.27
2023-01-15T04:29:11.127Z,8.33
2023-01-15T04:31:38.025Z,6.77
2023-01-15T04:34:05.093Z,7.80
2023-01-15T04:36:35.510Z,8.57
2023-01-15T04:39:03.259Z,6.83
2023-01-15T04:41:48.840Z,7.87
2023-01-15T04:44:15.682Z,6.30
2023-01-15T04:46:43.324Z,7.60
2023-01-15T04:49:12.107Z,8.47
2023-01-15T04:51:40.265Z,8.30
2023-01-15T04:54:08.695Z,9.43
2023-01-15T04:56:54.508Z,7.20
2023-01-15T04:59:22.340Z,8.57
2023-01-15T05:02:02.297Z,7.33
2023-01-15T05:04:30.681Z,8.67
2023-01-15T05:06:57.493Z,7.93
2023-01-15T05:09:24.340Z,9.70
2023-01-15T05:11:51.116Z,7.60
2023-01-15T05:14:18.017Z,8.90
2023-01-15T05:16:44.793Z,9.57
2023-01-15T05:19:11.586Z,8.20
2023-01-15T05:21:41.188Z,8.23
2023-01-15T05:24:09.303Z,10.10
2023-01-15T05:26:36.654Z,9.07
2023-01-15T05:29:04.010Z,8.17
2023-01-15T05:31:31.121Z,10.80
2023-01-15T05:33:58.104Z,8.40
2023-01-15T05:36:26.453Z,11.37
2023-01-15T05:38:54.466Z,9.50
2023-01-15T05:41:41.136Z,8.57
2023-01-15T05:44:09.399Z,8.07
2023-01-15T05:46:37.334Z,8.37
2023-01-15T05:49:05.439Z,8.17
2023-01-15T05:51:32.315Z,8.73
2023-01-15T05:53:59.190Z,9.83
2023-01-15T05:56:26.291Z,10.77
2023-01-15T05:58:54.029Z,8.53
2023-01-15T06:01:21.208Z,9.83
2023-01-15T06:03:48.636Z,13.70
2023-01-15T06:06:16.642Z,8.63
2023-01-15T06:08:43.679Z,11.03
2023-01-15T06:11:11.451Z,11.10
2023-01-15T06:13:39.733Z,11.10
2023-01-15T06:16:07.355Z,11.33
2023-01-15T06:18:35.703Z,14.17
2023-01-15T06:21:03.754Z,9.73
2023-01-15T06:23:30.572Z,9.63
2023-01-15T06:26:01.720Z,9.10
2023-01-15T06:28:28.675Z,11.00
2023-01-15T06:30:55.411Z,9.97
2023-01-15T06:33:22.256Z,10.97
2023-01-15T06:35:49.108Z,11.53
2023-01-15T06:38:15.896Z,9.33
2023-01-15T06:40:42.863Z,10.83
2023-01-15T06:43:28.946Z,12.37
2023-01-15T06:46:15.238Z,11.77
2023-01-15T06:48:43.408Z,9.67
2023-01-15T06:51:10.223Z,9.03
2023-01-15T06:53:37.031Z,12.03
2023-01-15T06:56:03.987Z,15.30
2023-01-15T06:58:30.725Z,14.13
2023-01-15T07:00:57.665Z,11.17
2023-01-15T07:03:24.633Z,11.17
2023-01-15T07:05:51.524Z,7.97
2023-01-15T07:08:18.320Z,10.13
2023-01-15T07:10:45.268Z,10.23
2023-01-15T07:13:12.109Z,11.83
2023-01-15T07:15:39.880Z,10.07
2023-01-15T07:18:07.159Z,11.67
2023-01-15T07:20:33.986Z,7.60
2023-01-15T07:23:00.727Z,9.90
2023-01-15T07:25:27.603Z,10.57
2023-01-15T07:27:54.371Z,9.90
2023-01-15T07:30:21.570Z,9.67
2023-01-15T07:32:48.486Z,8.97
2023-01-15T07:35:15.368Z,10.50
2023-01-15T07:37:44.257Z,9.73
2023-01-15T07:40:11.522Z,10.73
2023-01-15T07:42:57.045Z,8.37
2023-01-15T07:45:42.379Z,8.20
2023-01-15T07:48:29.483Z,10.43
2023-01-15T07:50:56.329Z,11.83
2023-01-15T07:53:23.096Z,8.67
2023-01-15T07:55:49.975Z,10.37
2023-01-15T07:58:16.879Z,8.17
2023-01-15T08:00:43.651Z,9.27
2023-01-15T08:03:10.483Z,8.70
2023-01-15T08:05:37.374Z,8.73
2023-01-15T08:08:04.212Z,8.00
2023-01-15T08:10:31.144Z,10.70
2023-01-15T08:13:16.197Z,10.73
2023-01-15T08:15:44.250Z,10.87
2023-01-15T08:18:11.364Z,10.67
2023-01-15T08:20:38.172Z,12.17
2023-01-15T08:23:05.026Z,15.60
2023-01-15T08:25:31.965Z,10.80
2023-01-15T08:28:00.993Z,9.03
2023-01-15T08:30:28.042Z,7.97
2023-01-15T08:32:59.369Z,9.00
2023-01-15T08:35:26.241Z,9.77
2023-01-15T08:37:53.074Z,10.90
2023-01-15T08:40:19.978Z,11.70
2023-01-15T08:42:46.855Z,10.50
2023-01-15T08:45:14.405Z,10.53
2023-01-15T08:47:41.285Z,10.00
2023-01-15T08:50:09.661Z,9.50
2023-01-15T08:52:38.331Z,11.80
2023-01-15T08:55:05.435Z,8.70
2023-01-15T08:57:32.326Z,8.27
2023-01-15T08:59:59.064Z,7.97
2023-01-15T09:02:26.009Z,10.77
2023-01-15T09:04:52.974Z,9.10
2023-01-15T09:07:20.331Z,10.30
2023-01-15T09:09:47.260Z,10.40
2023-01-15T09:12:14.399Z,8.77
2023-01-15T09:14:58.606Z,7.67
2023-01-15T09:17:28.320Z,8.53
2023-01-15T09:19:55.151Z,7.73
2023-01-15T09:22:22.002Z,6.43
2023-01-15T09:24:48.745Z,9.00
2023-01-15T09:27:15.653Z,8.47
2023-01-15T09:29:42.391Z,5.97
2023-01-15T09:32:10.703Z,6.53
2023-01-15T09:34:37.549Z,7.90
2023-01-15T09:37:04.407Z,9.13
2023-01-15T09:39:31.552Z,7.93
2023-01-15T09:42:10.576Z,6.30
2023-01-15T09:44:41.232Z,9.30
2023-01-15T09:47:14.087Z,8.33
2023-01-15T09:49:49.052Z,10.27
2023-01-15T09:52:21.676Z,7.83
2023-01-15T09:54:51.561Z,8.70
2023-01-15T09:57:19.646Z,8.80
2023-01-15T09:59:48.049Z,5.90
2023-01-15T10:02:17.783Z,6.60
2023-01-15T10:04:47.691Z,8.00
2023-01-15T10:07:28.784Z,5.47
2023-01-15T10:10:05.165Z,7.10
2023-01-15T10:12:35.788Z,5.77
2023-01-15T10:15:11.655Z,8.13
2023-01-15T10:17:47.691Z,6.83
2023-01-15T10:20:27.886Z,5.73
2023-01-15T10:22:59.574Z,4.37
2023-01-15T10:25:29.132Z,6.53
2023-01-15T10:27:59.412Z,4.50
2023-01-15T10:30:42.070Z,7.00
2023-01-15T10:33:38.334Z,7.33
2023-01-15T10:36:08.662Z,6.43
2023-01-15T10:38:43.552Z,5.73
2023-01-15T10:41:31.279Z,4.43
2023-01-15T10:44:18.382Z,7.70
2023-01-15T10:46:50.171Z,8.40
2023-01-15T10:49:18.158Z,8.63
2023-01-15T10:51:46.469Z,6.90
2023-01-15T10:54:25.129Z,6.87
2023-01-15T10:56:51.951Z,8.43
2023-01-15T10:59:18.860Z,7.37
2023-01-15T11:01:46.401Z,8.90
2023-01-15T11:04:15.862Z,9.43
2023-01-15T11:06:42.759Z,7.37
2023-01-15T11:09:17.845Z,7.70
2023-01-15T11:12:01.917Z,7.40
2023-01-15T11:14:51.635Z,7.10
2023-01-15T11:17:39.095Z,10.60
2023-01-15T11:20:14.664Z,7.87
2023-01-15T11:22:43.627Z,7.47
2023-01-15T11:25:12.029Z,8.67
2023-01-15T11:27:39.205Z,8.90
2023-01-15T11:30:07.386Z,7.73
2023-01-15T11:32:35.543Z,7.30
2023-01-15T11:35:04.377Z,7.40
2023-01-15T11:37:31.315Z,6.97
2023-01-15T11:40:05.664Z,7.43
2023-01-15T11:42:51.110Z,7.70
2023-01-15T11:45:38.148Z,10.77
2023-01-15T11:48:33.496Z,9.90
2023-01-15T11:51:07.922Z,10.07
2023-01-15T11:53:48.904Z,9.67
2023-01-15T11:56:20.722Z,7.90
2023-01-15T11:58:52.228Z,9.20
2023-01-15T12:01:26.248Z,9.73
2023-01-15T12:03:53.491Z,7.03
2023-01-15T12:06:21.446Z,8.67
2023-01-15T12:08:54.388Z,9.40
2023-01-15T12:11:30.401Z,12.00
2023-01-15T12:14:02.625Z,8.40
2023-01-15T12:16:29.439Z,7.93
2023-01-15T12:19:10.364Z,10.47
2023-01-15T12:21:44.829Z,8.37
2023-01-15T12:24:30.256Z,7.23
2023-01-15T12:27:00.312Z,8.27
2023-01-15T12:29:29.624Z,8.47
2023-01-15T12:32:01.812Z,8.10
2023-01-15T12:34:32.958Z,11.07
2023-01-15T12:37:22.692Z,6.97
2023-01-15T12:39:55.821Z,8.13
2023-01-15T12:42:42.422Z,9.50
2023-01-15T12:45:15.199Z,7.67
2023-01-15T12:47:54.474Z,11.03
2023-01-15T12:50:45.301Z,10.40
2023-01-15T12:53:24.305Z,10.53
2023-01-15T12:55:55.067Z,8.73
2023-01-15T12:58:34.177Z,9.03
2023-01-15T13:01:13.827Z,10.33
2023-01-15T13:03:53.432Z,10.37
2023-01-15T13:06:20.794Z,9.47
2023-01-15T13:09:00.984Z,9.30
2023-01-15T13:11:27.882Z,9.77
2023-01-15T13:14:03.973Z,10.30
2023-01-15T13:16:38.059Z,8.67
2023-01-15T13:19:30.440Z,11.23
2023-01-15T13:22:00.331Z,9.77
2023-01-15T13:24:27.151Z,9.87
2023-01-15T13:27:00.040Z,12.23
2023-01-15T13:29:29.993Z,10.80
2023-01-15T13:32:15.502Z,11.50
2023-01-15T13:35:01.281Z,12.57
2023-01-15T13:37:29.911Z,12.70
2023-01-15T13:40:03.799Z,11.17
2023-01-15T13:42:34.635Z,8.73
2023-01-15T13:45:07.436Z,12.30
2023-01-15T13:47:36.532Z,9.83
2023-01-15T13:50:05.339Z,8.33
2023-01-15T13:52:33.539Z,9.90
2023-01-15T13:55:07.610Z,9.60
2023-01-15T13:57:38.938Z,9.67
2023-01-15T14:00:07.212Z,10.00
2023-01-15T14:02:39.439Z,11.37
2023-01-15T14:05:23.883Z,10.43
2023-01-15T14:07:50.846Z,10.80
2023-01-15T14:10:17.591Z,9.87
2023-01-15T14:13:00.343Z,11.17
2023-01-15T14:15:31.528Z,11.57
2023-01-15T14:18:08.873Z,11.03
2023-01-15T14:20:47.060Z,10.47
2023-01-15T14:23:23.143Z,12.97
2023-01-15T14:25:50.507Z,15.33
2023-01-15T14:28:32.553Z,13.90
2023-01-15T14:31:17.709Z,14.40
2023-01-15T14:33:51.302Z,12.50
2023-01-15T14:36:19.668Z,15.47
2023-01-15T14:38:52.221Z,13.93
2023-01-15T14:41:26.788Z,13.03
2023-01-15T14:43:54.039Z,16.57
2023-01-15T14:46:34.609Z,13.87
2023-01-15T14:49:02.280Z,17.93
2023-01-15T14:51:32.353Z,13.80
2023-01-15T14:53:59.449Z,14.17
2023-01-15T14:56:35.236Z,14.07
2023-01-15T14:59:01.998Z,14.83
2023-01-15T15:01:35.185Z,14.00
2023-01-15T15:04:08.660Z,13.37
2023-01-15T15:06:45.866Z,11.87
2023-01-15T15:09:13.888Z,12.47
2023-01-15T15:12:20.179Z,11.83
2023-01-15T15:14:58.537Z,10.97
2023-01-15T15:17:34.905Z,11.00
2023-01-15T15:20:09.248Z,10.23
2023-01-15T15:22:38.584Z,10.40
2023-01-15T15:25:10.961Z,15.40
2023-01-15T15:27:37.847Z,11.90
2023-01-15T15:30:06.329Z,13.97
2023-01-15T15:32:40.231Z,12.17
2023-01-15T15:35:19.894Z,13.97
2023-01-15T15:37:46.848Z,14.27
2023-01-15T15:40:20.529Z,14.73
2023-01-15T15:43:08.656Z,14.27
2023-01-15T15:45:54.186Z,15.20
2023-01-15T15:48:43.066Z,13.57
2023-01-15T15:51:28.718Z,14.03
2023-01-15T15:54:05.009Z,11.70
2023-01-15T15:56:33.384Z,13.07
2023-01-15T15:59:00.456Z,12.77
2023-01-15T16:01:27.348Z,13.13
2023-01-15T16:03:55.305Z,12.60
2023-01-15T16:06:24.531Z,14.20
2023-01-15T16:09:04.955Z,15.77
2023-01-15T16:11:32.793Z,16.97
2023-01-15T16:14:01.182Z,14.90
2023-01-15T16:16:28.550Z,15.03
2023-01-15T16:18:57.160Z,14.40
2023-01-15T16:21:23.966Z,15.33
2023-01-15T16:24:03.817Z,16.20
2023-01-15T16:26:52.887Z,21.73
2023-01-15T16:29:21.826Z,17.63
2023-01-15T16:31:48.867Z,16.93
2023-01-15T16:34:18.607Z,14.27
2023-01-15T16:36:45.941Z,15.53
2023-01-15T16:39:31.038Z,12.50
2023-01-15T16:41:58.693Z,13.87
2023-01-15T16:44:26.965Z,12.73
2023-01-15T16:46:55.788Z,11.10
2023-01-15T16:49:22.641Z,9.43
2023-01-15T16:51:50.118Z,9.13
2023-01-15T16:54:32.251Z,12.60
2023-01-15T16:57:00.776Z,10.93
2023-01-15T16:59:27.504Z,9.23
2023-01-15T17:02:23.612Z,10.47
2023-01-15T17:04:51.971Z,9.00
2023-01-15T17:07:40.240Z,8.70
2023-01-15T17:10:18.781Z,9.90
2023-01-15T17:12:45.689Z,9.07
2023-01-15T17:15:15.288Z,11.57
2023-01-15T17:17:42.776Z,11.97
2023-01-15T17:20:10.727Z,11.57
2023-01-15T17:22:37.658Z,14.37
2023-01-15T17:25:21.197Z,10.50
2023-01-15T17:27:48.136Z,19.20
2023-01-15T17:30:15.339Z,10.13
2023-01-15T17:32:42.534Z,8.33
2023-01-15T17:35:18.315Z,9.30
2023-01-15T17:37:45.075Z,13.13
2023-01-15T17:40:12.286Z,44.77
2023-01-15T17:42:39.053Z,18.77
2023-01-15T17:45:06.129Z,8.73
2023-01-15T17:47:32.932Z,7.23
2023-01-15T17:49:59.916Z,5.33
2023-01-15T17:52:26.816Z,6.13
2023-01-15T17:55:29.020Z,6.97
2023-01-15T17:58:14.644Z,5.03
2023-01-15T18:01:00.134Z,3.93
2023-01-15T18:03:45.380Z,7.13
2023-01-15T18:06:13.141Z,5.63
2023-01-15T18:08:41.080Z,6.60
2023-01-15T18:11:07.946Z,6.27
2023-01-15T18:13:35.292Z,6.27
2023-01-15T18:16:02.062Z,7.67
2023-01-15T18:18:28.931Z,8.50
2023-01-15T18:20:55.738Z,7.27
2023-01-15T18:23:23.213Z,6.57
2023-01-15T18:25:50.101Z,9.67
2023-01-15T18:28:16.942Z,9.37
2023-01-15T18:30:43.745Z,8.90
2023-01-15T18:33:10.609Z,9.63
2023-01-15T18:35:37.351Z,12.43
2023-01-15T18:38:04.156Z,14.03
2023-01-15T18:40:31.584Z,13.40
2023-01-15T18:43:17.092Z,12.77
2023-01-15T18:46:06.411Z,15.10
2023-01-15T18:48:33.460Z,14.83
2023-01-15T18:51:10.017Z,15.93
2023-01-15T18:53:36.870Z,14.13
2023-01-15T18:56:04.176Z,14.07
2023-01-15T18:58:31.094Z,15.87
2023-01-15T19:00:58.068Z,14.13
2023-01-15T19:03:26.139Z,18.67
2023-01-15T19:05:53.447Z,14.73
2023-01-15T19:08:20.209Z,14.03
2023-01-15T19:10:47.080Z,12.97
2023-01-15T19:13:18.216Z,12.97
2023-01-15T19:16:03.511Z,13.60
2023-01-15T19:18:42.328Z,10.00
2023-01-15T19:21:10.712Z,10.27
2023-01-15T19:23:37.449Z,10.57
2023-01-15T19:26:04.618Z,11.57
2023-01-15T19:28:31.488Z,10.63
2023-01-15T19:31:16.546Z,12.70
2023-01-15T19:33:43.378Z,9.43
2023-01-15T19:36:10.386Z,11.23
2023-01-15T19:38:39.922Z,11.03
2023-01-15T19:41:31.405Z,10.63
2023-01-15T19:44:16.667Z,11.23
2023-01-15T19:47:02.191Z,12.50
2023-01-15T19:49:50.549Z,11.90
2023-01-15T19:52:35.359Z,11.37
2023-01-15T19:55:07.867Z,11.07
2023-01-15T19:57:34.676Z,13.23
2023-01-15T20:00:01.459Z,13.43
2023-01-15T20:02:28.933Z,12.67
2023-01-15T20:04:55.710Z,14.10
2023-01-15T20:07:22.619Z,11.60
2023-01-15T20:09:49.437Z,11.07
2023-01-15T20:12:34.856Z,9.70
2023-01-15T20:15:01.706Z,11.47
2023-01-15T20:17:29.556Z,9.67
2023-01-15T20:19:56.845Z,11.60
2023-01-15T20:22:27.191Z,9.67
2023-01-15T20:24:54.041Z,9.83
2023-01-15T20:27:20.931Z,11.30
2023-01-15T20:29:59.392Z,11.97
2023-01-15T20:32:26.728Z,12.43
2023-01-15T20:34:53.680Z,12.00
2023-01-15T20:37:20.491Z,10.50
2023-01-15T20:39:47.496Z,13.37
2023-01-15T20:42:32.697Z,9.73
2023-01-15T20:45:03.230Z,10.47
2023-01-15T20:47:48.963Z,10.80
2023-01-15T20:50:16.968Z,12.00
2023-01-15T20:52:47.592Z,12.33
2023-01-15T20:55:14.849Z,15.60
2023-01-15T20:57:41.945Z,10.80
2023-01-15T21:00:11.123Z,11.30
2023-01-15T21:02:38.123Z,12.23
2023-01-15T21:05:05.516Z,16.50
2023-01-15T21:07:32.562Z,9.87
2023-01-15T21:09:59.486Z,16.60
2023-01-15T21:12:26.223Z,21.30
2023-01-15T21:14:53.072Z,15.47
2023-01-15T21:17:19.923Z,12.43
2023-01-15T21:19:46.791Z,16.13
2023-01-15T21:22:13.535Z,19.70
2023-01-15T21:24:40.670Z,23.43
2023-01-15T21:27:07.447Z,12.50
2023-01-15T21:29:34.343Z,11.43
2023-01-15T21:32:01.116Z,12.00
2023-01-15T21:34:28.035Z,13.77
2023-01-15T21:36:54.907Z,12.47
2023-01-15T21:39:21.814Z,12.53
2023-01-15T21:42:08.923Z,14.20
2023-01-15T21:44:39.048Z,13.70
2023-01-15T21:47:06.947Z,14.27
2023-01-15T21:49:34.147Z,11.20
2023-01-15T21:52:01.870Z,13.37
2023-01-15T21:54:29.476Z,11.33
2023-01-15T21:56:56.739Z,11.03
2023-01-15T21:59:23.880Z,12.13
2023-01-15T22:01:53.514Z,9.87
2023-01-15T22:04:20.328Z,12.00
2023-01-15T22:06:47.299Z,8.57
2023-01-15T22:09:14.164Z,14.30
2023-01-15T22:11:46.773Z,9.33
2023-01-15T22:14:17.941Z,13.87
2023-01-15T22:16:46.068Z,9.87
2023-01-15T22:19:19.678Z,10.10
2023-01-15T22:21:49.943Z,10.97
2023-01-15T22:24:17.295Z,12.83
2023-01-15T22:26:44.048Z,15.33
2023-01-15T22:29:11.238Z,9.07
2023-01-15T22:31:41.583Z,13.67
2023-01-15T22:34:08.948Z,14.67
2023-01-15T22:36:38.373Z,13.50
2023-01-15T22:39:05.948Z,13.33
2023-01-15T22:41:51.869Z,14.87
2023-01-15T22:44:19.898Z,13.07
2023-01-15T22:46:46.687Z,17.37
2023-01-15T22:49:14.276Z,12.00
2023-01-15T22:51:41.798Z,11.17
2023-01-15T22:54:09.188Z,11.57
2023-01-15T22:56:36.453Z,13.97
2023-01-15T22:59:03.859Z,16.07
2023-01-15T23:01:31.005Z,14.40
2023-01-15T23:03:57.872Z,13.43
2023-01-15T23:06:27.268Z,10.23
2023-01-15T23:09:00.814Z,10.40
2023-01-15T23:11:28.240Z,10.27
2023-01-15T23:13:55.316Z,10.80
2023-01-15T23:16:22.293Z,10.47
2023-01-15T23:18:49.639Z,9.80
2023-01-15T23:21:18.412Z,9.43
2023-01-15T23:23:45.508Z,9.53
2023-01-15T23:26:13.722Z,14.17
2023-01-15T23:28:40.744Z,10.43
2023-01-15T23:31:07.937Z,8.70
2023-01-15T23:33:34.700Z,10.77
2023-01-15T23:36:01.573Z,10.00
2023-01-15T23:38:28.889Z,8.73
2023-01-15T23:40:55.645Z,9.67
2023-01-15T23:43:40.830Z,11.17
2023-01-15T23:46:29.382Z,9.33
2023-01-15T23:48:56.321Z,11.63
2023-01-15T23:51:23.084Z,8.97
2023-01-15T23:53:49.903Z,8.10
2023-01-15T23:56:16.759Z,10.53
2023-01-15T23:58:45.276Z,10.93
